sensor_id;sensor_type;location;lat;lon;timestamp;temperature;humidity
51739;DHT22;37815;52.692;6.226;2022-08-19T00:00:11;21.80;93.90
51739;DHT22;37815;52.692;6.226;2022-08-19T00:05:16;21.70;93.90
51739;DHT22;37815;52.692;6.226;2022-08-19T00:10:18;21.70;93.90
51739;DHT22;37815;52.692;6.226;2022-08-19T00:15:20;21.70;93.90
51739;DHT22;37815;52.692;6.226;2022-08-19T00:20:21;21.70;93.80
51739;DHT22;37815;52.692;6.226;2022-08-19T00:25:22;21.60;93.80
51739;DHT22;37815;52.692;6.226;2022-08-19T00:30:23;21.60;93.80
51739;DHT22;37815;52.692;6.226;2022-08-19T00:35:24;21.60;93.80
51739;DHT22;37815;52.692;6.226;2022-08-19T00:40:27;21.60;93.80
51739;DHT22;37815;52.692;6.226;2022-08-19T00:45:28;21.60;94.00
51739;DHT22;37815;52.692;6.226;2022-08-19T00:50:32;21.50;93.70
51739;DHT22;37815;52.692;6.226;2022-08-19T00:55:33;21.50;93.70
51739;DHT22;37815;52.692;6.226;2022-08-19T01:00:35;21.50;93.70
51739;DHT22;37815;52.692;6.226;2022-08-19T01:05:40;21.50;93.70
51739;DHT22;37815;52.692;6.226;2022-08-19T01:10:50;21.50;93.70
51739;DHT22;37815;52.692;6.226;2022-08-19T01:15:56;21.40;93.60
51739;DHT22;37815;52.692;6.226;2022-08-19T01:21:02;21.40;93.60
51739;DHT22;37815;52.692;6.226;2022-08-19T01:26:04;21.40;93.70
51739;DHT22;37815;52.692;6.226;2022-08-19T01:31:05;21.40;93.60
51739;DHT22;37815;52.692;6.226;2022-08-19T01:36:31;21.40;93.60
51739;DHT22;37815;52.692;6.226;2022-08-19T01:41:33;21.40;93.60
51739;DHT22;37815;52.692;6.226;2022-08-19T01:46:34;21.30;93.60
51739;DHT22;37815;52.692;6.226;2022-08-19T01:51:36;21.30;93.60
51739;DHT22;37815;52.692;6.226;2022-08-19T01:56:36;21.30;93.60
51739;DHT22;37815;52.692;6.226;2022-08-19T02:01:38;21.30;93.60
51739;DHT22;37815;52.692;6.226;2022-08-19T02:06:39;21.20;93.50
51739;DHT22;37815;52.692;6.226;2022-08-19T02:11:41;21.20;93.60
51739;DHT22;37815;52.692;6.226;2022-08-19T02:16:42;21.20;93.60
51739;DHT22;37815;52.692;6.226;2022-08-19T02:21:42;21.20;93.60
51739;DHT22;37815;52.692;6.226;2022-08-19T02:26:44;21.10;93.50
51739;DHT22;37815;52.692;6.226;2022-08-19T02:31:44;21.10;93.50
51739;DHT22;37815;52.692;6.226;2022-08-19T02:36:45;21.10;93.50
51739;DHT22;37815;52.692;6.226;2022-08-19T02:41:46;21.10;93.50
51739;DHT22;37815;52.692;6.226;2022-08-19T02:46:49;21.10;93.50
51739;DHT22;37815;52.692;6.226;2022-08-19T02:51:52;21.00;93.60
51739;DHT22;37815;52.692;6.226;2022-08-19T02:56:53;21.00;93.50
51739;DHT22;37815;52.692;6.226;2022-08-19T03:01:54;21.00;93.50
51739;DHT22;37815;52.692;6.226;2022-08-19T03:06:54;21.00;93.50
51739;DHT22;37815;52.692;6.226;2022-08-19T03:11:55;21.00;93.50
51739;DHT22;37815;52.692;6.226;2022-08-19T03:16:56;21.00;93.50
51739;DHT22;37815;52.692;6.226;2022-08-19T03:21:57;20.90;93.50
51739;DHT22;37815;52.692;6.226;2022-08-19T03:26:59;20.90;93.50
51739;DHT22;37815;52.692;6.226;2022-08-19T03:32:00;20.90;93.50
51739;DHT22;37815;52.692;6.226;2022-08-19T03:37:06;20.90;93.50
51739;DHT22;37815;52.692;6.226;2022-08-19T03:42:07;20.90;93.50
51739;DHT22;37815;52.692;6.226;2022-08-19T03:47:08;20.80;93.50
51739;DHT22;37815;52.692;6.226;2022-08-19T03:52:09;20.80;93.40
51739;DHT22;37815;52.692;6.226;2022-08-19T03:57:10;20.80;93.40
51739;DHT22;37815;52.692;6.226;2022-08-19T04:02:12;20.80;93.40
51739;DHT22;37815;52.692;6.226;2022-08-19T04:07:14;20.80;93.40
51739;DHT22;37815;52.692;6.226;2022-08-19T04:12:21;20.80;93.40
51739;DHT22;37815;52.692;6.226;2022-08-19T04:17:22;20.70;93.40
51739;DHT22;37815;52.692;6.226;2022-08-19T04:22:23;20.70;93.40
51739;DHT22;37815;52.692;6.226;2022-08-19T04:27:23;20.70;93.40
51739;DHT22;37815;52.692;6.226;2022-08-19T04:32:24;20.70;93.40
51739;DHT22;37815;52.692;6.226;2022-08-19T04:37:26;20.70;93.40
51739;DHT22;37815;52.692;6.226;2022-08-19T04:42:27;20.70;93.40
51739;DHT22;37815;52.692;6.226;2022-08-19T04:47:42;20.60;93.40
51739;DHT22;37815;52.692;6.226;2022-08-19T04:52:43;20.60;93.40
51739;DHT22;37815;52.692;6.226;2022-08-19T04:57:44;20.60;93.40
51739;DHT22;37815;52.692;6.226;2022-08-19T05:02:45;20.60;93.40
51739;DHT22;37815;52.692;6.226;2022-08-19T05:07:46;20.50;93.40
51739;DHT22;37815;52.692;6.226;2022-08-19T05:12:46;20.50;93.40
51739;DHT22;37815;52.692;6.226;2022-08-19T05:17:47;20.50;93.40
51739;DHT22;37815;52.692;6.226;2022-08-19T05:23:10;20.50;93.40
51739;DHT22;37815;52.692;6.226;2022-08-19T05:28:11;20.50;93.40
51739;DHT22;37815;52.692;6.226;2022-08-19T05:33:12;20.50;93.30
51739;DHT22;37815;52.692;6.226;2022-08-19T05:38:13;20.50;93.30
51739;DHT22;37815;52.692;6.226;2022-08-19T05:43:14;20.50;93.30
51739;DHT22;37815;52.692;6.226;2022-08-19T05:48:17;20.50;93.30
51739;DHT22;37815;52.692;6.226;2022-08-19T05:53:20;20.50;93.30
51739;DHT22;37815;52.692;6.226;2022-08-19T05:58:21;20.50;93.30
51739;DHT22;37815;52.692;6.226;2022-08-19T06:03:22;20.50;93.30
51739;DHT22;37815;52.692;6.226;2022-08-19T06:08:23;20.50;93.30
51739;DHT22;37815;52.692;6.226;2022-08-19T06:13:24;20.50;93.30
51739;DHT22;37815;52.692;6.226;2022-08-19T06:18:26;20.50;93.30
51739;DHT22;37815;52.692;6.226;2022-08-19T06:23:28;20.50;93.30
51739;DHT22;37815;52.692;6.226;2022-08-19T06:28:29;20.50;93.30
51739;DHT22;37815;52.692;6.226;2022-08-19T06:33:30;20.60;93.30
51739;DHT22;37815;52.692;6.226;2022-08-19T06:38:31;20.60;93.30
51739;DHT22;37815;52.692;6.226;2022-08-19T06:43:33;20.60;93.30
51739;DHT22;37815;52.692;6.226;2022-08-19T06:48:34;20.60;93.30
51739;DHT22;37815;52.692;6.226;2022-08-19T06:53:35;20.60;93.30
51739;DHT22;37815;52.692;6.226;2022-08-19T06:58:36;20.60;93.30
51739;DHT22;37815;52.692;6.226;2022-08-19T07:03:39;20.60;93.30
51739;DHT22;37815;52.692;6.226;2022-08-19T07:08:39;20.70;93.30
51739;DHT22;37815;52.692;6.226;2022-08-19T07:13:41;20.70;93.20
51739;DHT22;37815;52.692;6.226;2022-08-19T07:18:43;20.70;93.30
51739;DHT22;37815;52.692;6.226;2022-08-19T07:23:45;20.70;93.30
51739;DHT22;37815;52.692;6.226;2022-08-19T07:28:47;20.80;93.30
51739;DHT22;37815;52.692;6.226;2022-08-19T07:33:51;20.80;93.30
51739;DHT22;37815;52.692;6.226;2022-08-19T07:38:52;20.80;93.30
51739;DHT22;37815;52.692;6.226;2022-08-19T07:43:55;20.90;93.30
51739;DHT22;37815;52.692;6.226;2022-08-19T07:48:56;20.90;93.20
51739;DHT22;37815;52.692;6.226;2022-08-19T07:53:57;21.00;93.40
51739;DHT22;37815;52.692;6.226;2022-08-19T07:58:58;21.00;93.40
51739;DHT22;37815;52.692;6.226;2022-08-19T08:03:59;21.00;93.40
51739;DHT22;37815;52.692;6.226;2022-08-19T08:09:22;21.00;93.40
51739;DHT22;37815;52.692;6.226;2022-08-19T08:14:29;21.10;93.40
51739;DHT22;37815;52.692;6.226;2022-08-19T08:19:30;21.10;93.40
51739;DHT22;37815;52.692;6.226;2022-08-19T08:24:31;21.20;93.40
51739;DHT22;37815;52.692;6.226;2022-08-19T08:29:32;21.20;93.40
51739;DHT22;37815;52.692;6.226;2022-08-19T08:34:34;21.30;93.40
51739;DHT22;37815;52.692;6.226;2022-08-19T08:39:34;21.30;93.40
51739;DHT22;37815;52.692;6.226;2022-08-19T08:50:04;21.40;93.50
51739;DHT22;37815;52.692;6.226;2022-08-19T08:55:21;21.40;93.50
51739;DHT22;37815;52.692;6.226;2022-08-19T09:00:34;21.50;93.70
51739;DHT22;37815;52.692;6.226;2022-08-19T09:10:49;21.60;93.40
51739;DHT22;37815;52.692;6.226;2022-08-19T09:15:56;21.60;93.40
51739;DHT22;37815;52.692;6.226;2022-08-19T09:20:57;21.70;93.30
51739;DHT22;37815;52.692;6.226;2022-08-19T09:25:58;21.70;93.30
51739;DHT22;37815;52.692;6.226;2022-08-19T09:30:59;21.80;93.30
51739;DHT22;37815;52.692;6.226;2022-08-19T09:36:08;21.90;93.30
51739;DHT22;37815;52.692;6.226;2022-08-19T09:41:15;21.90;93.30
51739;DHT22;37815;52.692;6.226;2022-08-19T09:46:16;22.00;93.40
51739;DHT22;37815;52.692;6.226;2022-08-19T09:51:21;22.00;93.30
51739;DHT22;37815;52.692;6.226;2022-08-19T09:56:24;22.00;93.30
51739;DHT22;37815;52.692;6.226;2022-08-19T10:01:27;22.10;93.30
51739;DHT22;37815;52.692;6.226;2022-08-19T10:06:29;22.20;93.30
51739;DHT22;37815;52.692;6.226;2022-08-19T10:11:34;22.20;93.30
51739;DHT22;37815;52.692;6.226;2022-08-19T10:16:36;22.30;93.20
51739;DHT22;37815;52.692;6.226;2022-08-19T10:21:37;22.40;93.30
51739;DHT22;37815;52.692;6.226;2022-08-19T10:26:40;22.40;93.20
51739;DHT22;37815;52.692;6.226;2022-08-19T10:31:47;22.40;93.30
51739;DHT22;37815;52.692;6.226;2022-08-19T10:36:48;22.40;93.30
51739;DHT22;37815;52.692;6.226;2022-08-19T10:42:03;22.50;93.30
51739;DHT22;37815;52.692;6.226;2022-08-19T10:47:11;22.60;93.30
51739;DHT22;37815;52.692;6.226;2022-08-19T10:52:11;22.60;93.20
51739;DHT22;37815;52.692;6.226;2022-08-19T10:57:31;22.70;93.20
51739;DHT22;37815;52.692;6.226;2022-08-19T11:08:27;22.90;93.30
51739;DHT22;37815;52.692;6.226;2022-08-19T11:14:00;23.00;93.20
51739;DHT22;37815;52.692;6.226;2022-08-19T11:19:22;22.90;93.20
51739;DHT22;37815;52.692;6.226;2022-08-19T11:24:25;22.90;93.10
51739;DHT22;37815;52.692;6.226;2022-08-19T11:29:26;23.00;93.10
51739;DHT22;37815;52.692;6.226;2022-08-19T11:34:28;23.00;93.10
51739;DHT22;37815;52.692;6.226;2022-08-19T11:39:30;23.10;93.10
51739;DHT22;37815;52.692;6.226;2022-08-19T11:44:31;23.10;93.10
51739;DHT22;37815;52.692;6.226;2022-08-19T11:49:32;23.20;93.10
51739;DHT22;37815;52.692;6.226;2022-08-19T11:54:36;23.20;93.10
51739;DHT22;37815;52.692;6.226;2022-08-19T11:59:37;23.30;93.10
51739;DHT22;37815;52.692;6.226;2022-08-19T12:04:38;23.30;93.00
51739;DHT22;37815;52.692;6.226;2022-08-19T12:09:38;23.40;93.00
51739;DHT22;37815;52.692;6.226;2022-08-19T12:14:39;23.40;93.00
51739;DHT22;37815;52.692;6.226;2022-08-19T12:19:40;23.50;92.90
51739;DHT22;37815;52.692;6.226;2022-08-19T12:24:41;23.60;92.90
51739;DHT22;37815;52.692;6.226;2022-08-19T12:29:41;23.60;92.90
51739;DHT22;37815;52.692;6.226;2022-08-19T12:34:42;23.60;92.90
51739;DHT22;37815;52.692;6.226;2022-08-19T12:39:43;23.70;92.90
51739;DHT22;37815;52.692;6.226;2022-08-19T12:44:44;23.70;92.80
51739;DHT22;37815;52.692;6.226;2022-08-19T12:55:21;23.80;92.80
51739;DHT22;37815;52.692;6.226;2022-08-19T13:05:33;23.90;92.80
51739;DHT22;37815;52.692;6.226;2022-08-19T13:10:43;24.00;92.80
51739;DHT22;37815;52.692;6.226;2022-08-19T13:15:44;24.00;92.80
51739;DHT22;37815;52.692;6.226;2022-08-19T13:20:49;24.10;92.70
51739;DHT22;37815;52.692;6.226;2022-08-19T13:26:03;24.20;92.70
51739;DHT22;37815;52.692;6.226;2022-08-19T13:31:05;24.30;92.70
51739;DHT22;37815;52.692;6.226;2022-08-19T13:36:24;24.40;92.60
51739;DHT22;37815;52.692;6.226;2022-08-19T13:41:26;24.50;92.60
51739;DHT22;37815;52.692;6.226;2022-08-19T13:46:27;24.40;92.70
51739;DHT22;37815;52.692;6.226;2022-08-19T13:51:30;24.40;92.90
51739;DHT22;37815;52.692;6.226;2022-08-19T13:56:31;24.40;93.00
51739;DHT22;37815;52.692;6.226;2022-08-19T14:01:32;24.50;93.00
51739;DHT22;37815;52.692;6.226;2022-08-19T14:06:33;24.70;93.00
51739;DHT22;37815;52.692;6.226;2022-08-19T14:11:34;24.70;93.00
51739;DHT22;37815;52.692;6.226;2022-08-19T14:16:34;24.60;93.10
51739;DHT22;37815;52.692;6.226;2022-08-19T14:21:36;24.50;93.20
51739;DHT22;37815;52.692;6.226;2022-08-19T14:26:37;24.50;93.30
51739;DHT22;37815;52.692;6.226;2022-08-19T14:31:38;24.50;93.40
51739;DHT22;37815;52.692;6.226;2022-08-19T14:36:41;24.50;93.50
51739;DHT22;37815;52.692;6.226;2022-08-19T14:41:42;24.50;93.50
51739;DHT22;37815;52.692;6.226;2022-08-19T14:46:43;24.50;93.60
51739;DHT22;37815;52.692;6.226;2022-08-19T14:51:45;24.50;93.60
51739;DHT22;37815;52.692;6.226;2022-08-19T14:56:47;24.50;93.70
51739;DHT22;37815;52.692;6.226;2022-08-19T15:01:48;24.50;93.70
51739;DHT22;37815;52.692;6.226;2022-08-19T15:06:49;24.50;93.70
51739;DHT22;37815;52.692;6.226;2022-08-19T15:11:51;24.50;93.70
51739;DHT22;37815;52.692;6.226;2022-08-19T15:16:52;24.50;93.80
51739;DHT22;37815;52.692;6.226;2022-08-19T15:21:53;24.50;93.80
51739;DHT22;37815;52.692;6.226;2022-08-19T15:26:55;24.40;93.70
51739;DHT22;37815;52.692;6.226;2022-08-19T15:31:56;24.40;93.80
51739;DHT22;37815;52.692;6.226;2022-08-19T15:36:57;24.40;93.80
51739;DHT22;37815;52.692;6.226;2022-08-19T15:41:59;24.40;93.90
51739;DHT22;37815;52.692;6.226;2022-08-19T15:47:00;24.40;93.90
51739;DHT22;37815;52.692;6.226;2022-08-19T15:52:01;24.50;93.80
51739;DHT22;37815;52.692;6.226;2022-08-19T15:57:02;24.50;93.80
51739;DHT22;37815;52.692;6.226;2022-08-19T16:02:23;24.50;93.70
51739;DHT22;37815;52.692;6.226;2022-08-19T16:07:45;24.50;93.70
51739;DHT22;37815;52.692;6.226;2022-08-19T16:12:46;24.50;93.70
51739;DHT22;37815;52.692;6.226;2022-08-19T16:17:48;24.50;93.70
51739;DHT22;37815;52.692;6.226;2022-08-19T16:22:48;24.50;93.80
51739;DHT22;37815;52.692;6.226;2022-08-19T16:27:49;24.50;93.80
51739;DHT22;37815;52.692;6.226;2022-08-19T16:32:50;24.40;94.20
51739;DHT22;37815;52.692;6.226;2022-08-19T16:37:50;24.30;94.10
51739;DHT22;37815;52.692;6.226;2022-08-19T16:43:00;24.30;94.10
51739;DHT22;37815;52.692;6.226;2022-08-19T16:48:02;24.30;94.20
51739;DHT22;37815;52.692;6.226;2022-08-19T16:53:05;24.20;94.30
51739;DHT22;37815;52.692;6.226;2022-08-19T16:58:06;24.20;94.40
51739;DHT22;37815;52.692;6.226;2022-08-19T17:03:08;24.10;94.40
51739;DHT22;37815;52.692;6.226;2022-08-19T17:08:16;24.10;94.50
51739;DHT22;37815;52.692;6.226;2022-08-19T17:13:21;24.00;94.70
51739;DHT22;37815;52.692;6.226;2022-08-19T17:18:31;24.00;94.80
51739;DHT22;37815;52.692;6.226;2022-08-19T17:23:39;23.90;95.00
51739;DHT22;37815;52.692;6.226;2022-08-19T17:28:40;23.90;95.10
51739;DHT22;37815;52.692;6.226;2022-08-19T17:33:41;23.80;95.20
51739;DHT22;37815;52.692;6.226;2022-08-19T17:38:41;23.80;95.30
51739;DHT22;37815;52.692;6.226;2022-08-19T17:43:43;23.80;95.30
51739;DHT22;37815;52.692;6.226;2022-08-19T17:48:46;23.80;95.30
51739;DHT22;37815;52.692;6.226;2022-08-19T17:54:01;23.80;95.40
51739;DHT22;37815;52.692;6.226;2022-08-19T17:59:05;23.80;95.40
51739;DHT22;37815;52.692;6.226;2022-08-19T18:04:06;23.80;95.50
51739;DHT22;37815;52.692;6.226;2022-08-19T18:09:07;23.80;95.50
51739;DHT22;37815;52.692;6.226;2022-08-19T18:14:07;23.80;95.60
51739;DHT22;37815;52.692;6.226;2022-08-19T18:19:08;23.80;95.60
51739;DHT22;37815;52.692;6.226;2022-08-19T18:24:09;23.80;95.70
51739;DHT22;37815;52.692;6.226;2022-08-19T18:29:10;23.70;95.70
51739;DHT22;37815;52.692;6.226;2022-08-19T18:34:13;23.70;95.70
51739;DHT22;37815;52.692;6.226;2022-08-19T18:39:14;23.70;95.80
51739;DHT22;37815;52.692;6.226;2022-08-19T18:44:35;23.70;95.90
51739;DHT22;37815;52.692;6.226;2022-08-19T18:49:54;23.60;95.90
51739;DHT22;37815;52.692;6.226;2022-08-19T18:54:55;23.60;95.90
51739;DHT22;37815;52.692;6.226;2022-08-19T18:59:56;23.60;96.00
51739;DHT22;37815;52.692;6.226;2022-08-19T19:04:57;23.60;95.90
51739;DHT22;37815;52.692;6.226;2022-08-19T19:09:57;23.60;96.00
51739;DHT22;37815;52.692;6.226;2022-08-19T19:14:58;23.50;95.90
51739;DHT22;37815;52.692;6.226;2022-08-19T19:19:59;23.50;96.00
51739;DHT22;37815;52.692;6.226;2022-08-19T19:25:00;23.50;96.00
51739;DHT22;37815;52.692;6.226;2022-08-19T19:30:02;23.50;96.00
51739;DHT22;37815;52.692;6.226;2022-08-19T19:35:05;23.40;96.00
51739;DHT22;37815;52.692;6.226;2022-08-19T19:40:06;23.40;96.00
51739;DHT22;37815;52.692;6.226;2022-08-19T19:45:07;23.40;96.00
51739;DHT22;37815;52.692;6.226;2022-08-19T19:50:09;23.40;96.00
51739;DHT22;37815;52.692;6.226;2022-08-19T19:55:10;23.40;96.00
51739;DHT22;37815;52.692;6.226;2022-08-19T20:00:17;23.30;96.00
51739;DHT22;37815;52.692;6.226;2022-08-19T20:05:19;23.30;96.00
51739;DHT22;37815;52.692;6.226;2022-08-19T20:10:20;23.30;96.10
51739;DHT22;37815;52.692;6.226;2022-08-19T20:15:21;23.30;96.10
51739;DHT22;37815;52.692;6.226;2022-08-19T20:20:23;23.30;96.10
51739;DHT22;37815;52.692;6.226;2022-08-19T20:25:24;23.20;96.00
51739;DHT22;37815;52.692;6.226;2022-08-19T20:30:27;23.20;96.00
51739;DHT22;37815;52.692;6.226;2022-08-19T20:35:27;23.20;96.10
51739;DHT22;37815;52.692;6.226;2022-08-19T20:40:28;23.20;96.10
51739;DHT22;37815;52.692;6.226;2022-08-19T20:45:29;23.20;96.10
51739;DHT22;37815;52.692;6.226;2022-08-19T20:50:33;23.20;96.10
51739;DHT22;37815;52.692;6.226;2022-08-19T20:55:34;23.10;96.10
51739;DHT22;37815;52.692;6.226;2022-08-19T21:00:35;23.10;96.10
51739;DHT22;37815;52.692;6.226;2022-08-19T21:05:36;23.10;96.10
51739;DHT22;37815;52.692;6.226;2022-08-19T21:10:37;23.10;96.10
51739;DHT22;37815;52.692;6.226;2022-08-19T21:15:38;23.10;96.10
51739;DHT22;37815;52.692;6.226;2022-08-19T21:20:45;23.10;96.10
51739;DHT22;37815;52.692;6.226;2022-08-19T21:25:46;23.00;96.10
51739;DHT22;37815;52.692;6.226;2022-08-19T21:30:47;23.00;96.10
51739;DHT22;37815;52.692;6.226;2022-08-19T21:35:48;23.00;96.10
51739;DHT22;37815;52.692;6.226;2022-08-19T21:40:49;23.00;96.20
51739;DHT22;37815;52.692;6.226;2022-08-19T21:45:50;23.00;96.20
51739;DHT22;37815;52.692;6.226;2022-08-19T21:50:51;23.00;96.20
51739;DHT22;37815;52.692;6.226;2022-08-19T21:55:51;22.90;96.20
51739;DHT22;37815;52.692;6.226;2022-08-19T22:00:52;22.90;96.20
51739;DHT22;37815;52.692;6.226;2022-08-19T22:05:53;23.00;96.20
51739;DHT22;37815;52.692;6.226;2022-08-19T22:10:54;22.90;96.20
51739;DHT22;37815;52.692;6.226;2022-08-19T22:15:55;22.90;96.20
51739;DHT22;37815;52.692;6.226;2022-08-19T22:20:56;22.90;96.20
51739;DHT22;37815;52.692;6.226;2022-08-19T22:25:56;22.90;96.20
51739;DHT22;37815;52.692;6.226;2022-08-19T22:30:57;22.80;96.20
51739;DHT22;37815;52.692;6.226;2022-08-19T22:35:58;22.80;96.20
51739;DHT22;37815;52.692;6.226;2022-08-19T22:40:59;22.80;96.20
51739;DHT22;37815;52.692;6.226;2022-08-19T22:46:00;22.80;96.20
51739;DHT22;37815;52.692;6.226;2022-08-19T22:51:02;22.80;96.20
51739;DHT22;37815;52.692;6.226;2022-08-19T22:56:21;22.70;96.20
51739;DHT22;37815;52.692;6.226;2022-08-19T23:01:22;22.60;96.20
51739;DHT22;37815;52.692;6.226;2022-08-19T23:06:24;22.70;96.20
51739;DHT22;37815;52.692;6.226;2022-08-19T23:11:24;22.70;96.20
51739;DHT22;37815;52.692;6.226;2022-08-19T23:16:25;22.70;96.20
51739;DHT22;37815;52.692;6.226;2022-08-19T23:21:26;22.60;96.20
51739;DHT22;37815;52.692;6.226;2022-08-19T23:26:27;22.60;96.20
51739;DHT22;37815;52.692;6.226;2022-08-19T23:31:28;22.60;96.20
51739;DHT22;37815;52.692;6.226;2022-08-19T23:36:29;22.60;96.20
51739;DHT22;37815;52.692;6.226;2022-08-19T23:41:30;22.50;96.10
51739;DHT22;37815;52.692;6.226;2022-08-19T23:46:31;22.50;96.10
51739;DHT22;37815;52.692;6.226;2022-08-19T23:51:32;22.50;96.10
51739;DHT22;37815;52.692;6.226;2022-08-19T23:56:32;22.50;96.10
